createdAt,value
2022-11-07T00:02:16.420Z,8.00
2022-11-07T00:04:47.262Z,8.40
2022-11-07T00:07:18.086Z,7.60
2022-11-07T00:09:48.660Z,7.30
2022-11-07T00:12:19.325Z,7.70
2022-11-07T00:14:49.874Z,6.80
2022-11-07T00:17:20.596Z,7.50
2022-11-07T00:19:51.328Z,7.60
2022-11-07T00:22:21.864Z,7.10
2022-11-07T00:24:52.448Z,8.10
2022-11-07T00:27:22.922Z,7.10
2022-11-07T00:29:53.495Z,6.50
2022-11-07T00:32:23.934Z,6.70
2022-11-07T00:34:54.490Z,7.20
2022-11-07T00:37:25.162Z,7.20
2022-11-07T00:39:55.667Z,7.40
2022-11-07T00:42:26.137Z,7.50
2022-11-07T00:44:56.654Z,7.90
2022-11-07T00:47:27.162Z,6.80
2022-11-07T00:49:57.540Z,6.60
2022-11-07T00:52:28.005Z,6.40
2022-11-07T00:54:58.643Z,7.70
2022-11-07T00:57:29.163Z,7.10
2022-11-07T00:59:59.756Z,7.10
2022-11-07T01:02:30.523Z,7.40
2022-11-07T01:05:13.083Z,6.40
2022-11-07T01:07:43.798Z,6.50
2022-11-07T01:10:14.350Z,6.20
2022-11-07T01:12:45.062Z,6.80
2022-11-07T01:15:15.743Z,6.50
2022-11-07T01:17:46.318Z,6.30
2022-11-07T01:20:17.205Z,6.70
2022-11-07T01:22:48.011Z,5.70
2022-11-07T01:25:18.944Z,6.60
2022-11-07T01:27:49.482Z,7.30
2022-11-07T01:30:20.331Z,7.30
2022-11-07T01:32:50.882Z,6.80
2022-11-07T01:35:21.500Z,6.40
2022-11-07T01:37:52.168Z,6.80
2022-11-07T01:40:22.826Z,6.90
2022-11-07T01:42:53.376Z,7.00
2022-11-07T01:45:25.958Z,7.00
2022-11-07T01:47:58.282Z,6.70
2022-11-07T01:50:29.601Z,7.00
2022-11-07T01:53:00.275Z,8.30
2022-11-07T01:55:33.824Z,7.60
2022-11-07T01:58:07.630Z,7.20
2022-11-07T02:00:38.872Z,7.60
2022-11-07T02:03:11.832Z,7.70
2022-11-07T02:05:48.106Z,8.00
2022-11-07T02:08:19.012Z,7.80
2022-11-07T02:10:49.783Z,8.80
2022-11-07T02:13:26.553Z,6.70
2022-11-07T02:15:57.547Z,7.00
2022-11-07T02:18:30.615Z,8.50
2022-11-07T02:21:06.145Z,6.90
2022-11-07T02:23:43.174Z,8.10
2022-11-07T02:26:14.410Z,7.30
2022-11-07T02:28:46.488Z,8.30
2022-11-07T02:31:17.050Z,8.00
2022-11-07T02:33:47.678Z,7.60
2022-11-07T02:36:22.655Z,8.00
2022-11-07T02:38:58.800Z,6.50
2022-11-07T02:41:33.025Z,7.80
2022-11-07T02:44:08.119Z,7.50
2022-11-07T02:46:39.165Z,6.70
2022-11-07T02:49:09.885Z,7.80
2022-11-07T02:51:40.548Z,8.40
2022-11-07T02:54:11.116Z,7.20
2022-11-07T02:56:41.673Z,7.10
2022-11-07T02:59:12.232Z,7.20
2022-11-07T03:01:42.896Z,7.90
2022-11-07T03:04:13.625Z,6.80
2022-11-07T03:06:44.025Z,6.80
2022-11-07T03:09:14.738Z,7.10
2022-11-07T03:11:45.217Z,6.80
2022-11-07T03:14:15.857Z,7.70
2022-11-07T03:16:46.270Z,6.60
2022-11-07T03:19:16.911Z,7.50
2022-11-07T03:21:47.686Z,7.50
2022-11-07T03:24:18.218Z,8.20
2022-11-07T03:26:48.709Z,7.10
2022-11-07T03:29:19.132Z,6.60
2022-11-07T03:31:49.728Z,8.00
2022-11-07T03:34:20.209Z,7.40
2022-11-07T03:36:50.675Z,8.00
2022-11-07T03:39:25.657Z,7.10
2022-11-07T03:41:56.529Z,6.60
2022-11-07T03:44:27.007Z,7.60
2022-11-07T03:46:57.586Z,6.70
2022-11-07T03:49:28.099Z,6.70
2022-11-07T03:51:58.737Z,6.90
2022-11-07T03:54:29.333Z,6.90
2022-11-07T03:57:00.038Z,7.00
2022-11-07T03:59:30.648Z,7.30
2022-11-07T04:02:01.226Z,6.80
2022-11-07T04:04:32.047Z,6.10
2022-11-07T04:07:02.553Z,6.50
2022-11-07T04:09:33.058Z,7.00
2022-11-07T04:12:21.477Z,5.90
2022-11-07T04:15:09.940Z,6.50
2022-11-07T04:17:40.526Z,7.00
2022-11-07T04:20:12.654Z,6.10
2022-11-07T04:22:43.118Z,6.60
2022-11-07T04:25:14.600Z,7.20
2022-11-07T04:27:46.943Z,6.30
2022-11-07T04:30:24.430Z,5.60
2022-11-07T04:32:57.176Z,6.20
2022-11-07T04:35:30.117Z,5.80
2022-11-07T04:38:01.304Z,5.90
2022-11-07T04:40:32.617Z,6.50
2022-11-07T04:43:09.228Z,5.80
2022-11-07T04:45:40.312Z,5.60
2022-11-07T04:48:12.754Z,6.40
2022-11-07T04:50:44.320Z,6.20
2022-11-07T04:53:17.286Z,6.00
2022-11-07T04:55:48.312Z,5.80
2022-11-07T04:58:18.887Z,6.20
2022-11-07T05:00:49.426Z,6.30
2022-11-07T05:03:20.126Z,6.50
2022-11-07T05:05:51.114Z,7.10
2022-11-07T05:08:21.655Z,5.90
2022-11-07T05:10:52.301Z,5.70
2022-11-07T05:13:22.727Z,6.60
2022-11-07T05:15:53.345Z,6.70
2022-11-07T05:18:25.158Z,5.50
2022-11-07T05:20:55.674Z,5.30
2022-11-07T05:23:27.872Z,5.90
2022-11-07T05:25:58.380Z,5.70
2022-11-07T05:28:38.230Z,6.30
2022-11-07T05:31:15.661Z,6.00
2022-11-07T05:33:46.362Z,5.60
2022-11-07T05:36:19.029Z,5.30
2022-11-07T05:38:51.770Z,5.60
2022-11-07T05:41:23.782Z,6.20
2022-11-07T05:43:54.303Z,6.20
2022-11-07T05:46:24.783Z,4.70
2022-11-07T05:48:59.717Z,5.70
2022-11-07T05:51:31.583Z,5.10
2022-11-07T05:54:02.176Z,5.30
2022-11-07T05:56:32.729Z,5.20
2022-11-07T05:59:03.304Z,6.00
2022-11-07T06:01:34.026Z,6.30
2022-11-07T06:04:06.560Z,5.70
2022-11-07T06:06:37.091Z,5.30
2022-11-07T06:09:07.735Z,6.20
2022-11-07T06:11:38.260Z,5.60
2022-11-07T06:14:08.666Z,5.30
2022-11-07T06:16:39.320Z,6.10
2022-11-07T06:19:09.791Z,6.10
2022-11-07T06:22:02.215Z,6.50
2022-11-07T06:24:32.919Z,6.10
2022-11-07T06:27:03.701Z,5.80
2022-11-07T06:29:34.269Z,5.10
2022-11-07T06:32:05.027Z,6.60
2022-11-07T06:34:35.949Z,4.70
2022-11-07T06:37:06.470Z,5.90
2022-11-07T06:39:36.824Z,5.50
2022-11-07T06:42:07.456Z,5.50
2022-11-07T06:44:38.136Z,6.00
2022-11-07T06:47:08.897Z,5.20
2022-11-07T06:49:39.277Z,5.10
2022-11-07T06:52:09.721Z,5.60
2022-11-07T06:54:40.157Z,6.00
2022-11-07T06:57:10.770Z,5.60
2022-11-07T06:59:41.169Z,4.80
2022-11-07T07:02:26.014Z,6.10
2022-11-07T07:05:05.304Z,5.30
2022-11-07T07:07:35.764Z,5.60
2022-11-07T07:10:07.626Z,5.40
2022-11-07T07:12:38.257Z,6.00
2022-11-07T07:15:10.358Z,5.20
2022-11-07T07:17:40.953Z,5.80
2022-11-07T07:20:13.545Z,5.50
2022-11-07T07:22:44.897Z,5.50
2022-11-07T07:27:44.289Z,6.10
2022-11-07T07:30:15.949Z,4.90
2022-11-07T07:32:46.639Z,5.80
2022-11-07T07:35:17.180Z,5.60
2022-11-07T07:37:52.047Z,5.80
2022-11-07T07:40:23.218Z,5.10
2022-11-07T07:42:54.087Z,5.10
2022-11-07T07:45:24.455Z,5.20
2022-11-07T07:48:00.552Z,5.50
2022-11-07T07:50:32.583Z,5.00
2022-11-07T07:53:09.089Z,5.50
2022-11-07T07:55:39.867Z,5.40
2022-11-07T07:58:10.273Z,5.40
2022-11-07T08:00:40.915Z,5.70
2022-11-07T08:03:13.758Z,4.60
2022-11-07T08:05:44.497Z,5.70
2022-11-07T08:08:15.239Z,5.80
2022-11-07T08:10:46.063Z,5.50
2022-11-07T08:13:16.782Z,5.10
2022-11-07T08:15:47.467Z,4.90
2022-11-07T08:18:19.700Z,5.00
2022-11-07T08:20:52.243Z,6.00
2022-11-07T08:23:24.558Z,4.60
2022-11-07T08:25:57.168Z,4.90
2022-11-07T08:28:29.402Z,5.90
2022-11-07T08:31:03.076Z,4.70
2022-11-07T08:33:33.757Z,4.90
2022-11-07T08:36:06.146Z,4.70
2022-11-07T08:38:37.971Z,5.60
2022-11-07T08:41:08.723Z,11.20
2022-11-07T08:43:39.262Z,5.10
2022-11-07T08:46:10.073Z,5.20
2022-11-07T08:48:42.021Z,5.20
2022-11-07T08:51:12.508Z,5.20
2022-11-07T08:53:43.006Z,5.00
2022-11-07T08:56:13.662Z,5.40
2022-11-07T08:58:44.643Z,5.90
2022-11-07T09:01:15.735Z,5.50
2022-11-07T09:03:51.678Z,6.40
2022-11-07T09:06:25.375Z,6.10
2022-11-07T09:08:56.131Z,5.60
2022-11-07T09:11:27.221Z,5.00
2022-11-07T09:13:58.621Z,5.40
2022-11-07T09:18:58.143Z,5.10
2022-11-07T09:21:29.099Z,6.40
2022-11-07T09:23:59.668Z,5.60
2022-11-07T09:26:30.173Z,5.50
2022-11-07T09:29:01.476Z,6.50
2022-11-07T09:31:32.210Z,5.30
2022-11-07T09:34:02.841Z,5.50
2022-11-07T09:36:33.467Z,4.60
2022-11-07T09:39:03.892Z,4.80
2022-11-07T09:41:47.572Z,4.70
2022-11-07T09:44:47.107Z,5.10
2022-11-07T09:47:24.149Z,5.00
2022-11-07T09:49:59.247Z,4.30
2022-11-07T09:52:38.737Z,5.80
2022-11-07T09:55:15.757Z,4.60
2022-11-07T09:57:46.744Z,5.70
2022-11-07T10:00:21.270Z,4.80
2022-11-07T10:02:55.719Z,4.70
2022-11-07T10:05:39.835Z,4.80
2022-11-07T10:08:17.890Z,6.30
2022-11-07T10:10:53.538Z,4.80
2022-11-07T10:13:57.545Z,4.20
2022-11-07T10:16:40.175Z,4.90
2022-11-07T10:19:29.251Z,4.50
2022-11-07T10:22:12.932Z,4.30
2022-11-07T10:24:56.788Z,4.40
2022-11-07T10:27:28.985Z,4.40
2022-11-07T10:30:01.904Z,4.00
2022-11-07T10:32:46.981Z,4.20
2022-11-07T10:35:27.124Z,5.40
2022-11-07T10:38:00.448Z,4.60
2022-11-07T10:40:39.973Z,5.50
2022-11-07T10:43:17.537Z,5.10
2022-11-07T10:45:49.165Z,5.40
2022-11-07T10:50:54.976Z,4.70
2022-11-07T10:53:27.451Z,4.40
2022-11-07T10:55:59.160Z,4.70
2022-11-07T10:58:35.296Z,5.00
2022-11-07T11:01:09.204Z,4.20
2022-11-07T11:03:45.804Z,3.90
2022-11-07T11:06:25.168Z,3.50
2022-11-07T11:08:55.874Z,4.30
2022-11-07T11:11:32.126Z,4.30
2022-11-07T11:14:14.151Z,3.70
2022-11-07T11:16:47.052Z,5.10
2022-11-07T11:19:23.952Z,3.50
2022-11-07T11:21:58.115Z,3.90
2022-11-07T11:24:38.433Z,4.30
2022-11-07T11:27:15.524Z,4.10
2022-11-07T11:29:55.316Z,3.70
2022-11-07T11:32:32.570Z,3.60
2022-11-07T11:35:14.475Z,3.70
2022-11-07T11:37:48.701Z,4.00
2022-11-07T11:40:22.275Z,4.30
2022-11-07T11:43:00.600Z,4.40
2022-11-07T11:45:41.152Z,4.60
2022-11-07T11:48:24.304Z,4.60
2022-11-07T11:50:59.383Z,4.00
2022-11-07T11:53:30.573Z,3.80
2022-11-07T11:56:18.100Z,3.80
2022-11-07T11:58:55.384Z,3.40
2022-11-07T12:01:36.911Z,3.70
2022-11-07T12:04:24.994Z,3.30
2022-11-07T12:07:02.371Z,4.00
2022-11-07T12:09:42.052Z,4.20
2022-11-07T12:12:25.404Z,5.20
2022-11-07T12:15:22.832Z,4.00
2022-11-07T12:18:00.064Z,4.10
2022-11-07T12:20:34.314Z,4.60
2022-11-07T12:23:18.299Z,4.10
2022-11-07T12:25:57.533Z,3.50
2022-11-07T12:28:41.049Z,4.70
2022-11-07T12:31:27.917Z,3.10
2022-11-07T12:34:08.841Z,4.30
2022-11-07T12:36:53.117Z,4.30
2022-11-07T12:39:38.153Z,3.80
2022-11-07T12:42:16.236Z,3.60
2022-11-07T12:45:00.675Z,3.80
2022-11-07T12:47:49.971Z,3.30
2022-11-07T12:50:31.548Z,3.60
2022-11-07T12:53:16.797Z,5.70
2022-11-07T12:55:52.419Z,4.10
2022-11-07T12:58:26.317Z,4.30
2022-11-07T13:00:57.866Z,4.40
2022-11-07T13:03:47.076Z,3.60
2022-11-07T13:06:24.510Z,5.00
2022-11-07T13:09:06.396Z,4.80
2022-11-07T13:11:45.910Z,3.90
2022-11-07T13:14:29.351Z,3.70
2022-11-07T13:17:19.852Z,3.70
2022-11-07T13:20:02.333Z,4.10
2022-11-07T13:22:38.037Z,3.80
2022-11-07T13:25:27.405Z,3.70
2022-11-07T13:28:19.908Z,4.50
2022-11-07T13:31:01.114Z,3.60
2022-11-07T13:33:36.050Z,4.80
2022-11-07T13:36:26.881Z,4.30
2022-11-07T13:38:59.800Z,4.40
2022-11-07T13:41:32.053Z,4.50
2022-11-07T13:44:05.951Z,4.10
2022-11-07T13:46:40.148Z,4.40
2022-11-07T13:49:17.616Z,4.10
2022-11-07T13:51:51.435Z,4.50
2022-11-07T13:54:28.298Z,3.80
2022-11-07T13:57:03.788Z,4.60
2022-11-07T13:59:47.688Z,3.50
2022-11-07T14:02:26.387Z,4.30
2022-11-07T14:05:15.961Z,3.60
2022-11-07T14:07:52.146Z,3.80
2022-11-07T14:10:28.331Z,4.30
2022-11-07T14:13:07.537Z,4.00
2022-11-07T14:15:45.915Z,4.90
2022-11-07T14:18:18.581Z,3.30
2022-11-07T14:20:52.400Z,3.80
2022-11-07T14:23:26.017Z,3.90
2022-11-07T14:26:02.571Z,3.60
2022-11-07T14:28:38.089Z,3.60
2022-11-07T14:31:16.961Z,4.60
2022-11-07T14:33:53.731Z,4.70
2022-11-07T14:36:25.869Z,4.10
2022-11-07T14:39:02.065Z,4.40
2022-11-07T14:41:32.981Z,4.30
2022-11-07T14:44:06.938Z,4.40
2022-11-07T14:46:38.120Z,3.70
2022-11-07T14:49:16.965Z,5.40
2022-11-07T14:51:48.709Z,4.30
2022-11-07T14:54:22.326Z,5.00
2022-11-07T14:56:56.689Z,4.40
2022-11-07T14:59:33.462Z,4.70
2022-11-07T15:02:21.502Z,5.10
2022-11-07T15:04:52.439Z,4.10
2022-11-07T15:07:26.453Z,3.80
2022-11-07T15:09:59.753Z,4.00
2022-11-07T15:12:38.315Z,4.00
2022-11-07T15:15:20.229Z,4.30
2022-11-07T15:17:52.520Z,3.70
2022-11-07T15:20:33.006Z,4.10
2022-11-07T15:23:06.364Z,3.90
2022-11-07T15:25:39.262Z,4.00
2022-11-07T15:28:23.286Z,4.00
2022-11-07T15:30:55.864Z,3.50
2022-11-07T15:33:28.345Z,3.80
2022-11-07T15:36:01.482Z,3.40
2022-11-07T15:38:33.491Z,4.20
2022-11-07T15:41:04.189Z,4.40
2022-11-07T15:43:34.863Z,4.40
2022-11-07T15:46:09.354Z,4.50
2022-11-07T15:48:41.386Z,4.80
2022-11-07T15:51:12.936Z,4.20
2022-11-07T15:56:17.512Z,4.80
2022-11-07T15:58:48.670Z,5.30
2022-11-07T16:01:19.340Z,5.30
2022-11-07T16:03:49.981Z,6.20
2022-11-07T16:06:27.433Z,6.10
2022-11-07T16:08:58.205Z,5.20
2022-11-07T16:11:28.839Z,5.30
2022-11-07T16:14:29.486Z,6.20
2022-11-07T16:16:51.538Z,5.50
2022-11-07T16:19:29.782Z,5.10
2022-11-07T16:22:00.306Z,5.20
2022-11-07T16:24:30.719Z,5.60
2022-11-07T16:27:01.331Z,4.80
2022-11-07T16:29:32.402Z,6.10
2022-11-07T16:32:02.887Z,7.20
2022-11-07T16:34:33.546Z,5.00
2022-11-07T16:37:03.933Z,5.80
2022-11-07T16:39:34.471Z,5.80
2022-11-07T16:42:05.065Z,6.00
2022-11-07T16:44:35.701Z,6.40
2022-11-07T16:47:06.252Z,5.90
2022-11-07T16:49:38.785Z,5.20
2022-11-07T16:52:10.725Z,5.90
2022-11-07T16:54:41.099Z,5.40
2022-11-07T16:57:15.342Z,5.70
2022-11-07T16:59:46.680Z,5.40
2022-11-07T17:04:53.922Z,5.90
2022-11-07T17:07:25.173Z,5.20
2022-11-07T17:09:55.848Z,4.90
2022-11-07T17:12:28.101Z,5.10
2022-11-07T17:14:58.671Z,5.10
2022-11-07T17:17:30.724Z,5.40
2022-11-07T17:20:04.936Z,5.00
2022-11-07T17:22:35.597Z,4.70
2022-11-07T17:25:07.036Z,5.60
2022-11-07T17:30:17.644Z,5.30
2022-11-07T17:32:48.124Z,4.60
2022-11-07T17:35:31.861Z,5.90
2022-11-07T17:38:03.799Z,5.10
2022-11-07T17:40:35.873Z,5.00
2022-11-07T17:43:06.396Z,6.80
2022-11-07T17:45:37.538Z,5.60
2022-11-07T17:48:09.535Z,5.60
2022-11-07T17:50:40.424Z,5.90
2022-11-07T17:53:10.798Z,5.40
2022-11-07T17:55:41.386Z,5.70
2022-11-07T17:58:12.234Z,4.70
2022-11-07T18:00:42.896Z,5.30
2022-11-07T18:03:13.705Z,5.40
2022-11-07T18:05:44.250Z,5.50
2022-11-07T18:08:25.228Z,5.90
2022-11-07T18:11:05.711Z,5.90
2022-11-07T18:13:36.687Z,5.20
2022-11-07T18:16:12.867Z,6.30
2022-11-07T18:18:43.684Z,6.90
2022-11-07T18:21:15.012Z,7.10
2022-11-07T18:26:17.869Z,7.50
2022-11-07T18:28:49.848Z,6.90
2022-11-07T18:31:22.618Z,5.90
2022-11-07T18:33:57.017Z,6.20
2022-11-07T18:36:30.708Z,6.50
2022-11-07T18:39:05.286Z,6.00
2022-11-07T18:41:36.253Z,5.40
2022-11-07T18:44:06.984Z,5.80
2022-11-07T18:46:37.660Z,5.00
2022-11-07T18:49:08.486Z,4.60
2022-11-07T18:51:38.881Z,5.60
2022-11-07T18:54:11.034Z,6.10
2022-11-07T18:56:42.475Z,6.00
2022-11-07T19:01:42.326Z,4.20
2022-11-07T19:04:13.736Z,5.20
2022-11-07T19:06:57.177Z,4.70
2022-11-07T19:09:32.960Z,4.70
2022-11-07T19:12:03.515Z,4.50
2022-11-07T19:14:34.231Z,4.50
2022-11-07T19:17:05.016Z,4.10
2022-11-07T19:19:36.422Z,4.90
2022-11-07T19:22:07.053Z,4.70
2022-11-07T19:24:38.103Z,5.20
2022-11-07T19:27:08.893Z,5.30
2022-11-07T19:29:39.355Z,5.70
2022-11-07T19:32:10.342Z,5.50
2022-11-07T19:34:41.086Z,5.90
2022-11-07T19:37:12.001Z,6.20
2022-11-07T19:39:42.527Z,6.40
2022-11-07T19:42:13.135Z,8.80
2022-11-07T19:44:49.438Z,10.60
2022-11-07T19:47:21.683Z,5.70
2022-11-07T19:49:52.108Z,4.50
2022-11-07T19:52:22.778Z,5.80
2022-11-07T19:54:54.056Z,4.30
2022-11-07T19:59:53.979Z,7.10
2022-11-07T20:02:34.536Z,6.10
2022-11-07T20:05:07.449Z,5.70
2022-11-07T20:07:38.002Z,4.70
2022-11-07T20:10:10.493Z,6.50
2022-11-07T20:12:41.423Z,3.90
2022-11-07T20:15:14.545Z,3.80
2022-11-07T20:17:45.876Z,4.10
2022-11-07T20:22:54.788Z,4.40
2022-11-07T20:25:25.803Z,4.80
2022-11-07T20:27:59.877Z,4.90
2022-11-07T20:30:30.821Z,4.30
2022-11-07T20:35:33.036Z,5.60
2022-11-07T20:38:05.770Z,4.50
2022-11-07T20:40:38.064Z,4.00
2022-11-07T20:43:08.823Z,8.70
2022-11-07T20:45:39.807Z,5.00
2022-11-07T20:48:10.643Z,4.20
2022-11-07T20:50:41.718Z,4.50
2022-11-07T20:53:12.917Z,5.00
2022-11-07T20:55:45.240Z,4.80
2022-11-07T20:58:16.846Z,5.30
2022-11-07T21:00:48.379Z,5.30
2022-11-07T21:03:19.621Z,5.30
2022-11-07T21:10:55.515Z,6.20
2022-11-07T21:13:27.740Z,6.60
2022-11-07T21:15:59.556Z,6.10
2022-11-07T21:18:34.292Z,5.40
2022-11-07T21:21:15.635Z,5.10
2022-11-07T21:26:40.576Z,5.70
2022-11-07T21:29:13.534Z,5.90
2022-11-07T21:31:47.327Z,5.20
2022-11-07T21:34:24.865Z,5.70
2022-11-07T21:37:10.797Z,5.80
2022-11-07T21:39:46.752Z,5.50
2022-11-07T21:42:25.989Z,5.10
2022-11-07T21:45:20.901Z,4.80
2022-11-07T21:47:51.448Z,4.90
2022-11-07T21:50:43.481Z,5.60
2022-11-07T21:53:13.067Z,4.70
2022-11-07T21:55:43.602Z,4.70
2022-11-07T21:58:14.034Z,4.30
2022-11-07T22:00:44.748Z,5.10
2022-11-07T22:03:15.572Z,5.10
2022-11-07T22:05:47.213Z,4.20
2022-11-07T22:08:23.555Z,5.30
2022-11-07T22:10:54.640Z,4.60
2022-11-07T22:13:25.141Z,4.50
2022-11-07T22:16:01.902Z,4.70
2022-11-07T22:18:34.221Z,5.20
2022-11-07T22:21:06.437Z,4.90
2022-11-07T22:23:38.807Z,5.00
2022-11-07T22:26:11.786Z,4.40
2022-11-07T22:28:45.810Z,3.80
2022-11-07T22:31:18.934Z,4.80
2022-11-07T22:33:49.785Z,4.90
2022-11-07T22:36:21.315Z,4.60
2022-11-07T22:38:52.395Z,4.90
2022-11-07T22:41:25.011Z,4.90
2022-11-07T22:43:57.367Z,5.60
2022-11-07T22:46:30.042Z,4.90
2022-11-07T22:49:01.324Z,5.70
2022-11-07T22:51:33.772Z,4.30
2022-11-07T22:54:06.081Z,4.30
2022-11-07T22:56:37.921Z,4.10
2022-11-07T22:59:10.321Z,4.40
2022-11-07T23:01:42.605Z,4.70
2022-11-07T23:04:18.148Z,4.70
2022-11-07T23:06:48.636Z,3.80
2022-11-07T23:09:21.608Z,5.30
2022-11-07T23:11:52.924Z,5.00
2022-11-07T23:14:25.666Z,4.20
2022-11-07T23:16:57.185Z,5.10
2022-11-07T23:19:28.765Z,4.30
2022-11-07T23:21:59.207Z,4.20
2022-11-07T23:24:30.327Z,4.40
2022-11-07T23:27:00.906Z,4.50
2022-11-07T23:29:31.372Z,3.80
2022-11-07T23:32:02.161Z,4.70
2022-11-07T23:34:33.264Z,4.40
2022-11-07T23:37:13.772Z,5.30
2022-11-07T23:39:44.548Z,4.90
2022-11-07T23:42:15.133Z,4.40
2022-11-07T23:45:02.570Z,4.20
2022-11-07T23:47:50.796Z,4.90
2022-11-07T23:50:42.011Z,4.70
2022-11-07T23:53:26.318Z,5.40
2022-11-07T23:55:57.196Z,4.30
2022-11-07T23:58:45.475Z,4.80
